createdAt,value
2018-03-01T00:01:23.338Z,98.20
2018-03-01T00:03:50.865Z,98.20
2018-03-01T00:06:18.442Z,98.20
2018-03-01T00:08:46.742Z,98.10
2018-03-01T00:11:14.273Z,98.10
2018-03-01T00:13:43.338Z,98.00
2018-03-01T00:16:10.882Z,98.00
2018-03-01T00:18:38.415Z,97.70
2018-03-01T00:21:06.925Z,97.80
2018-03-01T00:23:34.451Z,97.80
2018-03-01T00:26:02.802Z,97.80
2018-03-01T00:28:30.334Z,97.80
2018-03-01T00:30:57.858Z,97.90
2018-03-01T00:33:25.386Z,97.70
2018-03-01T00:35:52.952Z,97.60
2018-03-01T00:38:20.476Z,97.90
2018-03-01T00:40:48.774Z,98.10
2018-03-01T00:43:16.312Z,98.10
2018-03-01T00:45:44.621Z,97.90
2018-03-01T00:48:12.153Z,97.90
2018-03-01T00:50:40.468Z,97.80
2018-03-01T00:53:08.030Z,97.70
2018-03-01T00:55:35.557Z,97.80
2018-03-01T00:58:03.867Z,97.80
2018-03-01T01:00:31.399Z,97.80
2018-03-01T01:02:59.684Z,98.30
2018-03-01T01:05:27.995Z,97.50
2018-03-01T01:07:55.523Z,97.40
2018-03-01T01:10:23.833Z,98.00
2018-03-01T01:12:51.493Z,97.90
2018-03-01T01:15:19.020Z,97.70
2018-03-01T01:17:48.084Z,97.50
2018-03-01T01:20:15.613Z,97.50
2018-03-01T01:22:43.144Z,97.80
2018-03-01T01:25:10.692Z,98.00
2018-03-01T01:27:38.223Z,97.90
2018-03-01T01:30:05.734Z,97.40
2018-03-01T01:32:33.282Z,97.40
2018-03-01T01:35:00.826Z,97.50
2018-03-01T01:37:28.340Z,97.70
2018-03-01T01:39:56.677Z,97.50
2018-03-01T01:42:24.213Z,97.50
2018-03-01T01:44:51.784Z,97.40
2018-03-01T01:47:19.339Z,97.50
2018-03-01T01:49:46.868Z,97.60
2018-03-01T01:52:15.170Z,97.30
2018-03-01T01:54:43.474Z,98.00
2018-03-01T01:57:11.022Z,97.60
2018-03-01T01:59:38.581Z,97.50
2018-03-01T02:02:06.896Z,97.20
2018-03-01T02:04:34.428Z,97.40
2018-03-01T02:07:02.719Z,97.30
2018-03-01T02:09:30.268Z,97.30
2018-03-01T02:11:58.555Z,97.40
2018-03-01T02:14:26.077Z,97.40
2018-03-01T02:16:53.621Z,97.20
2018-03-01T02:19:21.145Z,97.30
2018-03-01T02:21:48.678Z,97.40
2018-03-01T02:24:16.345Z,97.00
2018-03-01T02:26:44.652Z,97.00
2018-03-01T02:29:12.932Z,97.40
2018-03-01T02:31:41.237Z,97.60
2018-03-01T02:34:08.766Z,97.60
2018-03-01T02:36:37.075Z,97.30
2018-03-01T02:39:04.606Z,97.30
2018-03-01T02:41:32.893Z,97.40
2018-03-01T02:44:01.202Z,97.30
2018-03-01T02:46:28.729Z,97.30
2018-03-01T02:48:56.251Z,97.40
2018-03-01T02:51:23.818Z,97.30
2018-03-01T02:53:51.338Z,97.00
2018-03-01T02:56:18.866Z,97.00
2018-03-01T02:58:46.400Z,97.20
2018-03-01T03:01:13.922Z,96.80
2018-03-01T03:03:42.208Z,97.30
2018-03-01T03:06:10.516Z,97.10
2018-03-01T03:08:38.057Z,97.10
2018-03-01T03:11:05.594Z,96.70
2018-03-01T03:13:33.913Z,96.70
2018-03-01T03:16:01.439Z,96.70
2018-03-01T03:18:29.742Z,96.90
2018-03-01T03:20:58.239Z,96.50
2018-03-01T03:23:25.755Z,96.50
2018-03-01T03:25:54.053Z,97.20
2018-03-01T03:28:22.369Z,97.10
2018-03-01T03:30:49.907Z,97.10
2018-03-01T03:33:18.184Z,96.80
2018-03-01T03:35:46.493Z,96.80
2018-03-01T03:38:14.005Z,96.70
2018-03-01T03:40:41.521Z,96.60
2018-03-01T03:43:09.062Z,96.80
2018-03-01T03:45:37.344Z,97.00
2018-03-01T03:48:05.653Z,96.70
2018-03-01T03:50:33.186Z,96.70
2018-03-01T03:53:01.474Z,96.80
2018-03-01T03:55:29.032Z,96.80
2018-03-01T03:57:57.332Z,96.80
2018-03-01T04:00:24.857Z,96.70
2018-03-01T04:02:52.413Z,96.80
2018-03-01T04:05:19.932Z,96.90
2018-03-01T04:07:47.452Z,97.00
2018-03-01T04:10:15.755Z,96.90
2018-03-01T04:12:43.287Z,96.80
2018-03-01T04:15:10.797Z,96.90
2018-03-01T04:17:38.347Z,96.80
2018-03-01T04:20:05.864Z,97.10
2018-03-01T04:22:33.392Z,97.10
2018-03-01T04:25:00.935Z,97.10
2018-03-01T04:27:28.466Z,97.30
2018-03-01T04:29:56.000Z,97.10
2018-03-01T04:32:23.548Z,96.90
2018-03-01T04:34:51.064Z,96.80
2018-03-01T04:37:19.355Z,97.20
2018-03-01T04:39:47.669Z,97.00
2018-03-01T04:42:15.187Z,97.00
2018-03-01T04:44:43.468Z,97.30
2018-03-01T04:47:11.977Z,97.20
2018-03-01T04:49:40.267Z,97.40
2018-03-01T04:52:07.777Z,97.40
2018-03-01T04:54:35.324Z,97.00
2018-03-01T04:57:02.862Z,97.20
2018-03-01T04:59:30.384Z,97.50
2018-03-01T05:01:58.695Z,97.60
2018-03-01T05:04:26.218Z,97.30
2018-03-01T05:06:53.737Z,97.30
2018-03-01T05:09:21.381Z,97.40
2018-03-01T05:11:49.668Z,97.20
2018-03-01T05:14:17.203Z,97.20
2018-03-01T05:16:45.525Z,97.60
2018-03-01T05:19:13.049Z,97.60
2018-03-01T05:21:41.372Z,97.10
2018-03-01T05:24:08.922Z,97.10
2018-03-01T05:26:36.445Z,97.20
2018-03-01T05:29:03.974Z,97.10
2018-03-01T05:31:31.518Z,97.00
2018-03-01T05:33:59.036Z,97.10
2018-03-01T05:36:27.351Z,97.80
2018-03-01T05:38:55.662Z,97.60
2018-03-01T05:41:23.178Z,97.60
2018-03-01T05:46:25.595Z,97.80
2018-03-01T05:48:53.117Z,97.50
2018-03-01T05:51:20.637Z,97.50
2018-03-01T05:53:48.192Z,97.90
2018-03-01T05:56:15.709Z,98.20
2018-03-01T05:58:43.240Z,97.40
2018-03-01T06:01:10.807Z,97.70
2018-03-01T06:03:38.349Z,97.70
2018-03-01T06:06:05.886Z,97.70
2018-03-01T06:08:34.198Z,98.20
2018-03-01T06:11:01.727Z,98.20
2018-03-01T06:13:30.008Z,98.80
2018-03-01T06:15:58.430Z,98.90
2018-03-01T06:18:25.970Z,98.90
2018-03-01T06:20:54.259Z,99.20
2018-03-01T06:23:21.796Z,99.20
2018-03-01T06:25:50.181Z,99.20
2018-03-01T06:28:18.465Z,99.00
2018-03-01T06:30:46.890Z,99.00
2018-03-01T06:33:14.418Z,98.90
2018-03-01T06:35:42.719Z,99.40
2018-03-01T06:38:10.283Z,99.40
2018-03-01T06:40:37.802Z,99.50
2018-03-01T06:43:05.334Z,99.40
2018-03-01T06:45:32.892Z,99.40
2018-03-01T06:48:00.432Z,99.30
2018-03-01T06:50:27.990Z,99.20
2018-03-01T06:52:55.542Z,99.10
2018-03-01T06:55:23.837Z,98.80
2018-03-01T06:57:51.405Z,98.80
2018-03-01T07:00:18.953Z,98.90
2018-03-01T07:02:46.488Z,98.60
2018-03-01T07:05:14.014Z,99.00
2018-03-01T07:07:41.580Z,99.00
2018-03-01T07:10:09.161Z,98.60
2018-03-01T07:12:36.704Z,98.70
2018-03-01T07:15:04.268Z,98.50
2018-03-01T07:17:31.794Z,98.20
2018-03-01T07:20:00.106Z,98.10
2018-03-01T07:22:27.670Z,98.10
2018-03-01T07:24:55.206Z,98.00
2018-03-01T07:27:23.511Z,97.40
2018-03-01T07:29:51.157Z,97.40
2018-03-01T07:32:18.702Z,97.50
2018-03-01T07:34:46.993Z,97.00
2018-03-01T07:37:14.641Z,97.00
2018-03-01T07:39:42.161Z,97.50
2018-03-01T07:42:09.678Z,97.40
2018-03-01T07:44:38.070Z,96.60
2018-03-01T07:47:06.438Z,96.40
2018-03-01T07:49:35.330Z,96.50
2018-03-01T07:52:03.761Z,95.90
2018-03-01T07:54:31.357Z,95.90
2018-03-01T07:56:59.041Z,95.80
2018-03-01T07:59:27.443Z,95.60
2018-03-01T08:01:55.848Z,95.00
2018-03-01T08:04:23.389Z,95.00
2018-03-01T08:06:51.702Z,94.40
2018-03-01T08:09:19.381Z,94.40
2018-03-01T08:11:46.989Z,93.80
2018-03-01T08:14:15.402Z,93.00
2018-03-01T08:16:42.992Z,93.00
2018-03-01T08:19:10.569Z,93.00
2018-03-01T08:21:38.200Z,92.30
2018-03-01T08:24:05.793Z,92.20
2018-03-01T08:26:33.566Z,91.70
2018-03-01T08:29:01.125Z,91.10
2018-03-01T08:31:28.693Z,91.50
2018-03-01T08:33:56.383Z,91.50
2018-03-01T08:36:23.953Z,91.00
2018-03-01T08:38:51.503Z,91.20
2018-03-01T08:41:19.176Z,91.00
2018-03-01T08:43:48.949Z,90.00
2018-03-01T08:46:16.561Z,90.00
2018-03-01T08:48:44.195Z,89.50
2018-03-01T08:51:11.811Z,90.90
2018-03-01T08:53:39.360Z,91.10
2018-03-01T08:56:06.893Z,90.80
2018-03-01T08:58:34.561Z,90.10
2018-03-01T09:01:02.251Z,90.50
2018-03-01T09:03:29.777Z,90.30
2018-03-01T09:05:57.333Z,90.60
2018-03-01T09:08:24.931Z,90.50
2018-03-01T09:10:52.452Z,90.00
2018-03-01T09:13:20.031Z,89.40
2018-03-01T09:15:47.668Z,89.70
2018-03-01T09:18:15.267Z,88.40
2018-03-01T09:20:42.908Z,86.30
2018-03-01T09:23:10.447Z,85.50
2018-03-01T09:25:38.783Z,82.80
2018-03-01T09:28:06.337Z,82.70
2018-03-01T09:30:33.923Z,81.70
2018-03-01T09:33:01.454Z,80.70
2018-03-01T09:35:29.013Z,81.30
2018-03-01T09:37:56.558Z,81.00
2018-03-01T09:40:24.896Z,77.60
2018-03-01T09:42:52.486Z,77.60
2018-03-01T09:45:20.042Z,77.00
2018-03-01T09:47:47.622Z,79.40
2018-03-01T09:50:16.168Z,78.10
2018-03-01T09:52:43.727Z,78.10
2018-03-01T09:55:11.286Z,77.10
2018-03-01T09:57:38.868Z,78.70
2018-03-01T10:00:06.411Z,77.00
2018-03-01T10:02:33.950Z,75.90
2018-03-01T10:05:01.604Z,76.00
2018-03-01T10:07:29.897Z,75.90
2018-03-01T10:09:57.421Z,75.90
2018-03-01T10:12:25.027Z,75.30
2018-03-01T10:14:52.577Z,76.60
2018-03-01T10:17:20.881Z,72.20
2018-03-01T10:19:48.463Z,72.10
2018-03-01T10:22:16.055Z,73.30
2018-03-01T10:24:43.607Z,73.40
2018-03-01T10:27:11.176Z,72.00
2018-03-01T10:29:44.268Z,71.10
2018-03-01T10:32:11.922Z,72.80
2018-03-01T10:34:39.446Z,74.10
2018-03-01T10:37:07.042Z,71.90
2018-03-01T10:39:34.666Z,72.20
2018-03-01T10:42:02.949Z,71.80
2018-03-01T10:44:30.497Z,71.80
2018-03-01T10:46:58.821Z,68.60
2018-03-01T10:49:26.358Z,68.60
2018-03-01T10:51:54.662Z,71.30
2018-03-01T10:54:22.977Z,70.90
2018-03-01T10:56:50.503Z,70.90
2018-03-01T10:59:18.063Z,72.10
2018-03-01T11:01:51.380Z,70.30
2018-03-01T11:04:18.932Z,71.90
2018-03-01T11:06:46.462Z,69.80
2018-03-01T11:09:14.776Z,70.70
2018-03-01T11:11:42.318Z,70.70
2018-03-01T11:14:09.847Z,74.00
2018-03-01T11:16:37.427Z,70.00
2018-03-01T11:19:05.736Z,70.30
2018-03-01T11:21:33.296Z,70.10
2018-03-01T11:24:00.862Z,70.40
2018-03-01T11:26:28.447Z,69.50
2018-03-01T11:28:55.971Z,71.60
2018-03-01T11:31:24.309Z,70.80
2018-03-01T11:33:51.871Z,70.60
2018-03-01T11:36:19.427Z,69.00
2018-03-01T11:38:46.997Z,67.70
2018-03-01T11:41:14.516Z,69.50
2018-03-01T11:43:42.809Z,70.80
2018-03-01T11:46:10.371Z,70.70
2018-03-01T11:48:37.933Z,68.00
2018-03-01T11:51:05.457Z,69.50
2018-03-01T11:53:33.005Z,67.90
2018-03-01T11:56:00.560Z,68.40
2018-03-01T11:58:28.085Z,68.30
2018-03-01T12:00:55.630Z,68.40
2018-03-01T12:03:23.915Z,66.20
2018-03-01T12:05:52.211Z,63.20
2018-03-01T12:08:19.773Z,63.10
2018-03-01T12:10:47.371Z,63.50
2018-03-01T12:13:14.921Z,67.30
2018-03-01T12:15:42.502Z,66.40
2018-03-01T12:18:10.057Z,66.90
2018-03-01T12:20:37.612Z,65.80
2018-03-01T12:23:05.299Z,64.80
2018-03-01T12:25:32.854Z,69.20
2018-03-01T12:28:00.379Z,67.70
2018-03-01T12:30:28.702Z,66.00
2018-03-01T12:32:56.247Z,66.10
2018-03-01T12:35:23.810Z,64.10
2018-03-01T12:37:51.392Z,67.40
2018-03-01T12:40:18.944Z,67.90
2018-03-01T12:42:46.491Z,69.50
2018-03-01T12:45:14.060Z,66.50
2018-03-01T12:47:41.602Z,68.90
2018-03-01T12:50:09.897Z,63.60
2018-03-01T12:52:37.463Z,63.60
2018-03-01T12:55:05.022Z,67.90
2018-03-01T12:57:32.550Z,69.80
2018-03-01T13:00:00.139Z,69.50
2018-03-01T13:02:28.470Z,68.30
2018-03-01T13:04:56.632Z,68.40
2018-03-01T13:07:24.170Z,66.00
2018-03-01T13:09:51.726Z,67.70
2018-03-01T13:12:20.045Z,69.50
2018-03-01T13:14:47.566Z,70.10
2018-03-01T13:17:15.871Z,67.00
2018-03-01T13:19:43.461Z,67.10
2018-03-01T13:22:11.029Z,68.40
2018-03-01T13:24:38.635Z,68.20
2018-03-01T13:27:06.962Z,62.30
2018-03-01T13:29:34.534Z,62.20
2018-03-01T13:32:02.679Z,68.20
2018-03-01T13:34:31.879Z,67.60
2018-03-01T13:36:59.423Z,69.60
2018-03-01T13:39:27.754Z,69.00
2018-03-01T13:41:57.096Z,68.80
2018-03-01T13:44:24.647Z,72.00
2018-03-01T13:47:02.154Z,67.70
2018-03-01T13:49:29.756Z,69.50
2018-03-01T13:51:57.294Z,71.30
2018-03-01T13:54:25.608Z,67.70
2018-03-01T13:56:53.134Z,67.70
2018-03-01T13:59:21.447Z,70.40
2018-03-01T14:01:49.019Z,70.30
2018-03-01T14:04:16.567Z,69.40
2018-03-01T14:09:45.992Z,68.30
2018-03-01T14:12:15.330Z,71.20
2018-03-01T14:14:42.890Z,70.10
2018-03-01T14:17:14.359Z,70.40
2018-03-01T14:19:45.425Z,71.20
2018-03-01T14:22:19.505Z,71.70
2018-03-01T14:24:47.631Z,71.80
2018-03-01T14:27:33.029Z,72.60
2018-03-01T14:30:03.094Z,74.00
2018-03-01T14:32:30.790Z,77.10
2018-03-01T14:34:58.357Z,73.40
2018-03-01T14:37:25.880Z,73.60
2018-03-01T14:39:53.514Z,75.50
2018-03-01T14:42:21.043Z,76.30
2018-03-01T14:44:49.339Z,76.60
2018-03-01T14:47:16.889Z,76.50
2018-03-01T14:49:45.177Z,76.00
2018-03-01T14:52:12.703Z,76.00
2018-03-01T14:54:40.249Z,76.20
2018-03-01T14:57:07.760Z,76.20
2018-03-01T14:59:36.070Z,78.40
2018-03-01T15:02:03.618Z,78.40
2018-03-01T15:04:31.168Z,76.50
2018-03-01T15:06:58.696Z,76.70
2018-03-01T15:09:26.258Z,77.90
2018-03-01T15:11:53.790Z,78.70
2018-03-01T15:14:21.326Z,77.30
2018-03-01T15:16:48.882Z,78.10
2018-03-01T15:19:17.226Z,78.30
2018-03-01T15:21:44.864Z,78.30
2018-03-01T15:24:12.494Z,77.00
2018-03-01T15:26:40.798Z,78.40
2018-03-01T15:29:08.351Z,78.20
2018-03-01T15:31:35.890Z,78.60
2018-03-01T15:34:04.203Z,80.50
2018-03-01T15:36:31.786Z,80.20
2018-03-01T15:38:59.349Z,80.00
2018-03-01T15:41:26.876Z,79.90
2018-03-01T15:43:55.153Z,81.20
2018-03-01T15:46:22.698Z,81.20
2018-03-01T15:48:50.237Z,79.50
2018-03-01T15:51:17.756Z,81.10
2018-03-01T15:53:45.310Z,80.60
2018-03-01T15:56:12.926Z,80.70
2018-03-01T15:58:40.461Z,81.20
2018-03-01T16:01:08.050Z,81.80
2018-03-01T16:03:35.587Z,81.80
2018-03-01T16:06:03.106Z,81.60
2018-03-01T16:08:30.674Z,81.70
2018-03-01T16:10:58.207Z,82.30
2018-03-01T16:13:25.722Z,82.80
2018-03-01T16:15:54.049Z,83.30
2018-03-01T16:18:21.582Z,83.20
2018-03-01T16:20:49.109Z,83.50
2018-03-01T16:23:16.744Z,83.40
2018-03-01T16:25:44.269Z,84.50
2018-03-01T16:28:11.794Z,84.10
2018-03-01T16:30:39.361Z,84.70
2018-03-01T16:33:06.890Z,84.70
2018-03-01T16:35:34.423Z,85.10
2018-03-01T16:38:01.970Z,85.60
2018-03-01T16:40:30.461Z,85.50
2018-03-01T16:42:58.755Z,85.70
2018-03-01T16:45:26.424Z,85.70
2018-03-01T16:47:55.056Z,85.60
2018-03-01T16:50:24.114Z,86.30
2018-03-01T16:52:51.642Z,85.70
2018-03-01T16:55:19.984Z,86.60
2018-03-01T16:57:47.516Z,86.60
2018-03-01T17:00:15.085Z,87.20
2018-03-01T17:02:42.695Z,86.30
2018-03-01T17:05:10.381Z,86.20
2018-03-01T17:07:38.675Z,87.60
2018-03-01T17:10:07.112Z,86.90
2018-03-01T17:12:34.689Z,86.90
2018-03-01T17:15:02.373Z,87.50
2018-03-01T17:17:29.937Z,86.20
2018-03-01T17:19:57.479Z,86.80
2018-03-01T17:22:24.999Z,87.80
2018-03-01T17:24:52.541Z,87.20
2018-03-01T17:27:20.818Z,88.00
2018-03-01T17:29:49.110Z,88.80
2018-03-01T17:32:17.417Z,88.50
2018-03-01T17:34:44.981Z,88.60
2018-03-01T17:37:12.761Z,88.40
2018-03-01T17:39:40.285Z,88.70
2018-03-01T17:42:08.573Z,88.80
2018-03-01T17:44:36.203Z,88.80
2018-03-01T17:47:03.746Z,89.40
2018-03-01T17:49:31.265Z,89.30
2018-03-01T17:51:58.840Z,89.40
2018-03-01T17:54:26.408Z,90.00
2018-03-01T17:56:53.950Z,89.60
2018-03-01T17:59:22.462Z,90.00
2018-03-01T18:01:50.028Z,90.00
2018-03-01T18:04:17.574Z,90.10
2018-03-01T18:06:45.159Z,90.30
2018-03-01T18:09:12.717Z,90.30
2018-03-01T18:11:40.264Z,90.50
2018-03-01T18:14:07.850Z,90.40
2018-03-01T18:16:35.425Z,90.50
2018-03-01T18:19:03.015Z,90.50
2018-03-01T18:21:30.659Z,90.80
2018-03-01T18:23:58.239Z,90.70
2018-03-01T18:26:25.820Z,91.00
2018-03-01T18:28:54.185Z,91.20
2018-03-01T18:31:21.751Z,91.20
2018-03-01T18:33:49.299Z,91.00
2018-03-01T18:36:17.004Z,91.10
2018-03-01T18:38:45.367Z,91.50
2018-03-01T18:41:12.967Z,91.50
2018-03-01T18:43:40.534Z,91.50
2018-03-01T18:46:08.096Z,91.60
2018-03-01T18:48:35.651Z,91.60
2018-03-01T18:51:03.990Z,91.60
2018-03-01T18:53:31.643Z,91.60
2018-03-01T18:55:59.199Z,91.40
2018-03-01T18:58:26.780Z,91.50
2018-03-01T19:00:54.347Z,91.90
2018-03-01T19:03:22.687Z,91.80
2018-03-01T19:05:50.444Z,91.70
2018-03-01T19:08:18.809Z,91.90
2018-03-01T19:10:47.267Z,91.90
2018-03-01T19:13:14.914Z,91.90
2018-03-01T19:15:42.583Z,92.00
2018-03-01T19:18:10.175Z,91.90
2018-03-01T19:20:38.088Z,91.90
2018-03-01T19:23:05.666Z,91.90
2018-03-01T19:25:33.324Z,91.70
2018-03-01T19:28:00.914Z,92.10
2018-03-01T19:30:28.550Z,92.10
2018-03-01T19:32:56.134Z,92.10
2018-03-01T19:35:23.695Z,92.10
2018-03-01T19:37:51.307Z,92.00
2018-03-01T19:40:18.965Z,91.90
2018-03-01T19:42:46.814Z,91.90
2018-03-01T19:45:14.414Z,91.70
2018-03-01T19:47:42.049Z,91.90
2018-03-01T19:50:09.761Z,92.00
2018-03-01T19:52:38.074Z,91.90
2018-03-01T19:55:05.728Z,91.80
2018-03-01T19:57:33.339Z,92.10
2018-03-01T20:00:00.980Z,92.00
2018-03-01T20:02:28.566Z,92.00
2018-03-01T20:04:56.378Z,92.00
2018-03-01T20:07:24.919Z,92.00
2018-03-01T20:09:52.486Z,92.00
2018-03-01T20:12:20.040Z,92.10
2018-03-01T20:14:47.711Z,92.10
2018-03-01T20:17:15.381Z,92.10
2018-03-01T20:19:42.966Z,92.10
2018-03-01T20:22:10.564Z,92.30
2018-03-01T20:24:38.930Z,92.40
2018-03-01T20:27:07.411Z,92.40
2018-03-01T20:29:35.745Z,92.40
2018-03-01T20:32:03.354Z,92.40
2018-03-01T20:34:31.844Z,92.60
2018-03-01T20:37:00.171Z,92.50
2018-03-01T20:39:27.784Z,92.50
2018-03-01T20:41:56.262Z,92.70
2018-03-01T20:44:23.948Z,92.60
2018-03-01T20:46:52.370Z,93.00
2018-03-01T20:49:20.050Z,93.00
2018-03-01T20:51:47.588Z,93.00
2018-03-01T20:54:15.148Z,93.00
2018-03-01T20:56:43.694Z,93.00
2018-03-01T20:59:11.320Z,93.00
2018-03-01T21:01:38.875Z,93.20
2018-03-01T21:04:06.468Z,93.30
2018-03-01T21:06:34.008Z,93.30
2018-03-01T21:09:01.590Z,93.20
2018-03-01T21:11:29.355Z,93.20
2018-03-01T21:13:57.041Z,93.30
2018-03-01T21:16:24.579Z,93.20
2018-03-01T21:18:52.178Z,93.20
2018-03-01T21:21:19.933Z,93.40
2018-03-01T21:23:47.503Z,93.50
2018-03-01T21:26:15.099Z,93.30
2018-03-01T21:28:44.098Z,93.40
2018-03-01T21:31:12.567Z,93.60
2018-03-01T21:33:40.205Z,93.50
2018-03-01T21:36:07.815Z,93.50
2018-03-01T21:38:36.194Z,93.80
2018-03-01T21:41:04.515Z,93.70
2018-03-01T21:43:32.187Z,93.60
2018-03-01T21:45:59.928Z,93.90
2018-03-01T21:48:28.251Z,94.00
2018-03-01T21:50:55.778Z,94.00
2018-03-01T21:53:23.677Z,94.10
2018-03-01T21:55:51.318Z,94.20
2018-03-01T21:58:18.931Z,94.30
2018-03-01T22:00:46.597Z,94.30
2018-03-01T22:03:14.146Z,94.30
2018-03-01T22:05:41.717Z,94.30
2018-03-01T22:08:09.651Z,94.30
2018-03-01T22:10:37.174Z,94.50
2018-03-01T22:13:04.737Z,94.60
2018-03-01T22:15:32.335Z,94.50
2018-03-01T22:17:59.938Z,94.60
2018-03-01T22:20:27.608Z,94.50
2018-03-01T22:22:55.240Z,94.40
2018-03-01T22:25:22.802Z,94.70
2018-03-01T22:27:50.413Z,94.80
2018-03-01T22:30:17.965Z,94.90
2018-03-01T22:32:45.488Z,94.90
2018-03-01T22:35:13.030Z,94.80
2018-03-01T22:37:40.641Z,94.90
2018-03-01T22:40:08.185Z,94.80
2018-03-01T22:42:35.731Z,95.10
2018-03-01T22:45:04.139Z,95.10
2018-03-01T22:47:31.739Z,95.10
2018-03-01T22:49:59.270Z,95.00
2018-03-01T22:52:26.906Z,95.00
2018-03-01T22:54:55.285Z,95.30
2018-03-01T22:57:22.874Z,95.30
2018-03-01T22:59:50.436Z,95.30
2018-03-01T23:02:17.973Z,95.30
2018-03-01T23:04:45.525Z,95.30
2018-03-01T23:07:13.132Z,95.30
2018-03-01T23:09:41.100Z,95.50
2018-03-01T23:12:08.650Z,95.20
2018-03-01T23:14:37.100Z,95.40
2018-03-01T23:17:04.641Z,95.40
2018-03-01T23:19:32.199Z,95.50
2018-03-01T23:21:59.768Z,95.30
2018-03-01T23:24:27.323Z,95.50
2018-03-01T23:26:54.855Z,95.30
2018-03-01T23:29:23.179Z,95.60
2018-03-01T23:31:50.706Z,95.30
2018-03-01T23:34:18.991Z,95.10
2018-03-01T23:36:47.318Z,95.40
2018-03-01T23:39:14.892Z,95.40
2018-03-01T23:41:42.536Z,95.50
2018-03-01T23:44:10.118Z,95.50
2018-03-01T23:46:37.648Z,95.60
2018-03-01T23:49:05.211Z,95.70
2018-03-01T23:51:32.761Z,95.50
2018-03-01T23:54:01.099Z,95.60
2018-03-01T23:56:28.614Z,95.60
2018-03-01T23:58:56.189Z,95.70
